createdAt,value
2018-07-17T00:02:22.361Z,99635.30
2018-07-17T00:04:53.345Z,99628.27
2018-07-17T00:07:24.313Z,99628.16
2018-07-17T00:09:55.333Z,99631.04
2018-07-17T00:12:26.263Z,99617.63
2018-07-17T00:14:57.678Z,99624.38
2018-07-17T00:17:28.308Z,99623.39
2018-07-17T00:19:59.682Z,99621.45
2018-07-17T00:22:30.346Z,99618.61
2018-07-17T00:25:01.371Z,99613.98
2018-07-17T00:27:32.286Z,99612.56
2018-07-17T00:30:03.758Z,99618.97
2018-07-17T00:32:34.369Z,99619.48
2018-07-17T00:35:05.321Z,99624.37
2018-07-17T00:37:36.291Z,99614.34
2018-07-17T00:40:07.307Z,99615.22
2018-07-17T00:42:38.370Z,99607.59
2018-07-17T00:45:09.316Z,99603.77
2018-07-17T00:47:40.754Z,99601.03
2018-07-17T00:50:11.378Z,99604.24
2018-07-17T00:52:42.367Z,99604.70
2018-07-17T00:55:13.380Z,99595.75
2018-07-17T00:57:44.561Z,99599.20
2018-07-17T01:00:15.126Z,99592.34
2018-07-17T01:02:51.505Z,99599.16
2018-07-17T01:05:26.372Z,99597.73
2018-07-17T01:08:01.187Z,99595.22
2018-07-17T01:10:36.085Z,99590.77
2018-07-17T01:13:05.029Z,99585.84
2018-07-17T01:15:39.064Z,99582.86
2018-07-17T01:18:09.424Z,99579.87
2018-07-17T01:20:39.657Z,99579.16
2018-07-17T01:23:09.611Z,99588.30
2018-07-17T01:25:39.815Z,99582.61
2018-07-17T01:28:09.806Z,99584.55
2018-07-17T01:30:40.267Z,99589.34
2018-07-17T01:33:10.087Z,99590.70
2018-07-17T01:35:40.016Z,99588.84
2018-07-17T01:38:10.032Z,99588.55
2018-07-17T01:40:40.043Z,99587.70
2018-07-17T01:43:10.318Z,99576.73
2018-07-17T01:45:40.598Z,99577.71
2018-07-17T01:48:11.101Z,99581.33
2018-07-17T01:50:40.989Z,99577.16
2018-07-17T01:53:10.981Z,99571.78
2018-07-17T01:55:40.978Z,99573.45
2018-07-17T01:58:10.990Z,99579.35
2018-07-17T02:00:41.510Z,99573.67
2018-07-17T02:03:11.374Z,99577.12
2018-07-17T02:05:41.313Z,99570.30
2018-07-17T02:08:11.263Z,99568.91
2018-07-17T02:10:42.674Z,99571.90
2018-07-17T02:13:13.342Z,99566.22
2018-07-17T02:15:44.315Z,99567.73
2018-07-17T02:18:14.227Z,99573.79
2018-07-17T02:20:45.731Z,99572.23
2018-07-17T02:23:16.362Z,99566.30
2018-07-17T02:25:47.433Z,99571.47
2018-07-17T02:28:18.297Z,99570.34
2018-07-17T02:30:49.708Z,99568.19
2018-07-17T02:33:20.049Z,99572.23
2018-07-17T02:35:50.672Z,99569.75
2018-07-17T02:38:21.358Z,99569.45
2018-07-17T02:40:52.333Z,99567.30
2018-07-17T02:43:23.313Z,99563.94
2018-07-17T02:45:54.277Z,99562.25
2018-07-17T02:48:25.645Z,99574.20
2018-07-17T02:50:56.367Z,99574.95
2018-07-17T02:53:27.374Z,99571.96
2018-07-17T02:55:58.451Z,99576.16
2018-07-17T02:58:29.298Z,99573.09
2018-07-17T03:01:00.366Z,99573.04
2018-07-17T03:03:31.259Z,99574.25
2018-07-17T03:06:02.775Z,99570.96
2018-07-17T03:08:33.968Z,99572.34
2018-07-17T03:11:04.626Z,99576.34
2018-07-17T03:13:35.343Z,99574.11
2018-07-17T03:16:06.363Z,99575.45
2018-07-17T03:18:37.339Z,99579.05
2018-07-17T03:21:07.419Z,99584.80
2018-07-17T03:23:38.282Z,99580.26
2018-07-17T03:26:09.650Z,99581.52
2018-07-17T03:28:40.297Z,99579.96
2018-07-17T03:31:11.999Z,99527.82
2018-07-17T03:33:42.517Z,99578.62
2018-07-17T03:36:13.726Z,99577.48
2018-07-17T03:38:44.698Z,99583.70
2018-07-17T03:41:15.395Z,99583.45
2018-07-17T03:43:46.289Z,99586.66
2018-07-17T03:46:17.294Z,99580.63
2018-07-17T03:48:48.770Z,99578.44
2018-07-17T03:51:19.415Z,99582.32
2018-07-17T03:53:50.430Z,99588.39
2018-07-17T03:56:21.395Z,99582.41
2018-07-17T03:58:52.300Z,99586.80
2018-07-17T04:01:23.647Z,99585.99
2018-07-17T04:03:54.602Z,99591.42
2018-07-17T04:06:25.283Z,99587.98
2018-07-17T04:08:56.654Z,99590.47
2018-07-17T04:11:27.381Z,99587.63
2018-07-17T04:13:58.253Z,99589.93
2018-07-17T04:16:29.599Z,99592.02
2018-07-17T04:19:00.339Z,99588.73
2018-07-17T04:21:31.362Z,99587.39
2018-07-17T04:24:02.196Z,99583.61
2018-07-17T04:26:33.738Z,99579.14
2018-07-17T04:29:04.406Z,99582.36
2018-07-17T04:31:36.051Z,99586.59
2018-07-17T04:34:06.706Z,99587.94
2018-07-17T04:36:38.363Z,99585.44
2018-07-17T04:39:11.332Z,99590.91
2018-07-17T04:41:41.816Z,99593.59
2018-07-17T04:44:12.251Z,99590.37
2018-07-17T04:46:42.628Z,99587.58
2018-07-17T04:49:12.502Z,99586.44
2018-07-17T04:51:43.377Z,99587.19
2018-07-17T04:54:14.375Z,99593.76
2018-07-17T04:56:45.338Z,99596.38
2018-07-17T04:59:16.340Z,99589.06
2018-07-17T05:01:47.797Z,99592.69
2018-07-17T05:04:18.549Z,99581.94
2018-07-17T05:06:49.441Z,99582.54
2018-07-17T05:09:20.315Z,99581.73
2018-07-17T05:11:51.655Z,99586.12
2018-07-17T05:14:22.336Z,99588.95
2018-07-17T05:16:53.508Z,99586.42
2018-07-17T05:19:24.245Z,99584.72
2018-07-17T05:21:55.635Z,99587.13
2018-07-17T05:24:26.326Z,99583.45
2018-07-17T05:26:57.382Z,99582.70
2018-07-17T05:29:28.338Z,99578.37
2018-07-17T05:31:59.951Z,99579.41
2018-07-17T05:34:30.514Z,99581.89
2018-07-17T05:37:01.450Z,99589.25
2018-07-17T05:39:32.341Z,99589.70
2018-07-17T05:42:03.678Z,99591.39
2018-07-17T05:44:34.385Z,99591.39
2018-07-17T05:47:05.398Z,99595.02
2018-07-17T05:49:36.275Z,99603.92
2018-07-17T05:52:07.734Z,99591.53
2018-07-17T05:54:38.450Z,99601.06
2018-07-17T05:57:10.401Z,99596.50
2018-07-17T05:59:40.282Z,99606.44
2018-07-17T06:02:11.943Z,99595.96
2018-07-17T06:04:42.500Z,99589.12
2018-07-17T06:07:13.372Z,99589.48
2018-07-17T06:09:44.477Z,99587.41
2018-07-17T06:12:15.338Z,99588.61
2018-07-17T06:14:46.345Z,99583.65
2018-07-17T06:17:17.670Z,99581.16
2018-07-17T06:19:48.359Z,99579.98
2018-07-17T06:22:19.460Z,99580.73
2018-07-17T06:24:50.292Z,99581.13
2018-07-17T06:27:21.693Z,99581.29
2018-07-17T06:29:52.332Z,99582.50
2018-07-17T06:32:23.502Z,99581.76
2018-07-17T06:34:54.395Z,99566.92
2018-07-17T06:37:25.484Z,99577.70
2018-07-17T06:40:05.904Z,99567.09
2018-07-17T06:42:35.897Z,99566.06
2018-07-17T06:45:06.049Z,99562.03
2018-07-17T06:47:36.053Z,99562.33
2018-07-17T06:50:06.353Z,99564.58
2018-07-17T06:52:36.367Z,99565.45
2018-07-17T06:55:06.425Z,99565.02
2018-07-17T06:57:36.238Z,99569.95
2018-07-17T07:00:06.523Z,99563.09
2018-07-17T07:02:36.413Z,99568.63
2018-07-17T07:05:06.410Z,99566.83
2018-07-17T07:07:37.205Z,99554.25
2018-07-17T07:10:07.759Z,99558.11
2018-07-17T07:12:38.282Z,99549.45
2018-07-17T07:15:09.626Z,99556.47
2018-07-17T07:17:40.318Z,99550.36
2018-07-17T07:20:11.574Z,99553.81
2018-07-17T07:22:42.685Z,99555.32
2018-07-17T07:25:13.448Z,99551.36
2018-07-17T07:27:44.365Z,99546.83
2018-07-17T07:30:15.288Z,99548.45
2018-07-17T07:32:46.581Z,99551.13
2018-07-17T07:35:18.283Z,99546.06
2018-07-17T07:37:48.203Z,99539.53
2018-07-17T07:40:19.539Z,99539.62
2018-07-17T07:42:50.377Z,99542.45
2018-07-17T07:45:21.340Z,99539.62
2018-07-17T07:47:52.562Z,99540.43
2018-07-17T07:50:23.270Z,99542.47
2018-07-17T07:52:54.749Z,99547.01
2018-07-17T07:55:25.331Z,99541.56
2018-07-17T07:57:56.412Z,99542.01
2018-07-17T08:00:27.246Z,99551.47
2018-07-17T08:02:58.727Z,99544.69
2018-07-17T08:05:29.335Z,99541.13
2018-07-17T08:08:00.859Z,99549.79
2018-07-17T08:10:31.627Z,99552.09
2018-07-17T08:13:02.342Z,99543.91
2018-07-17T08:15:33.865Z,99549.27
2018-07-17T08:18:04.478Z,99548.12
2018-07-17T08:20:35.277Z,99542.75
2018-07-17T08:23:07.112Z,99543.26
2018-07-17T08:25:37.705Z,99541.17
2018-07-17T08:28:08.755Z,99552.08
2018-07-17T08:30:38.662Z,99546.10
2018-07-17T08:33:09.808Z,99544.40
2018-07-17T08:35:40.374Z,99547.89
2018-07-17T08:38:13.040Z,99546.55
2018-07-17T08:40:42.902Z,99549.23
2018-07-17T08:43:13.699Z,99549.41
2018-07-17T08:45:44.818Z,99556.66
2018-07-17T08:48:14.806Z,99558.30
2018-07-17T08:50:45.382Z,99559.72
2018-07-17T08:53:16.403Z,99561.63
2018-07-17T08:55:47.282Z,99561.80
2018-07-17T08:58:18.681Z,99564.72
2018-07-17T09:00:49.260Z,99556.43
2018-07-17T09:03:21.134Z,99560.25
2018-07-17T09:05:51.663Z,99563.38
2018-07-17T09:08:24.136Z,99563.70
2018-07-17T09:10:54.034Z,99563.56
2018-07-17T09:13:24.631Z,99561.34
2018-07-17T09:15:55.352Z,99561.05
2018-07-17T09:18:26.290Z,99558.82
2018-07-17T09:20:58.718Z,99561.36
2018-07-17T09:23:28.816Z,99567.05
2018-07-17T09:25:59.456Z,99563.65
2018-07-17T09:28:30.386Z,99562.91
2018-07-17T09:31:02.762Z,99560.61
2018-07-17T09:33:33.163Z,99555.29
2018-07-17T09:36:03.254Z,99560.22
2018-07-17T09:38:34.766Z,99561.41
2018-07-17T09:41:05.354Z,99568.97
2018-07-17T09:43:36.461Z,99561.12
2018-07-17T09:46:07.622Z,99563.00
2018-07-17T09:48:38.362Z,99558.87
2018-07-17T09:51:09.494Z,99564.84
2018-07-17T09:53:41.050Z,99560.02
2018-07-17T09:56:11.658Z,99566.05
2018-07-17T09:58:42.409Z,99561.50
2018-07-17T10:01:18.154Z,99562.91
2018-07-17T10:03:48.189Z,99566.49
2018-07-17T10:06:18.733Z,99565.45
2018-07-17T10:08:49.054Z,99568.58
2018-07-17T10:11:19.437Z,99564.94
2018-07-17T10:13:49.354Z,99573.06
2018-07-17T10:16:19.297Z,99578.83
2018-07-17T10:18:50.726Z,99569.63
2018-07-17T10:21:21.393Z,99575.00
2018-07-17T10:23:53.455Z,99573.95
2018-07-17T10:26:23.383Z,99577.23
2018-07-17T10:28:54.434Z,99580.77
2018-07-17T10:31:25.008Z,99574.49
2018-07-17T10:33:55.665Z,99571.27
2018-07-17T10:36:26.301Z,99577.63
2018-07-17T10:38:57.687Z,99578.23
2018-07-17T10:41:28.287Z,99574.94
2018-07-17T10:43:59.713Z,99570.61
2018-07-17T10:46:31.230Z,99573.20
2018-07-17T10:49:01.903Z,99572.70
2018-07-17T10:51:32.512Z,99573.00
2018-07-17T10:54:02.455Z,99563.80
2018-07-17T10:56:33.354Z,99566.64
2018-07-17T10:59:04.505Z,99563.95
2018-07-17T11:01:35.343Z,99573.50
2018-07-17T11:04:07.674Z,99562.75
2018-07-17T11:06:37.543Z,99565.29
2018-07-17T11:09:08.405Z,99568.53
2018-07-17T11:11:39.273Z,99566.30
2018-07-17T11:14:10.717Z,99564.90
2018-07-17T11:16:42.622Z,99565.64
2018-07-17T11:19:12.812Z,99563.86
2018-07-17T11:21:43.497Z,99561.91
2018-07-17T11:24:15.251Z,99566.28
2018-07-17T11:26:45.636Z,99565.44
2018-07-17T11:29:16.441Z,99565.30
2018-07-17T11:31:47.008Z,99566.87
2018-07-17T11:34:17.663Z,99571.20
2018-07-17T11:36:48.291Z,99567.63
2018-07-17T11:39:19.681Z,99565.89
2018-07-17T11:41:50.415Z,99568.88
2018-07-17T11:44:21.359Z,99569.17
2018-07-17T11:46:52.355Z,99565.00
2018-07-17T11:49:23.830Z,99565.89
2018-07-17T11:51:54.433Z,99569.92
2018-07-17T11:54:25.378Z,99569.78
2018-07-17T11:56:56.325Z,99571.12
2018-07-17T11:59:28.095Z,99563.59
2018-07-17T12:01:59.038Z,99571.81
2018-07-17T12:04:29.713Z,99566.44
2018-07-17T12:07:00.325Z,99570.07
2018-07-17T12:09:32.822Z,99561.56
2018-07-17T12:12:02.872Z,99568.33
2018-07-17T12:14:33.744Z,99568.39
2018-07-17T12:17:04.525Z,99569.58
2018-07-17T12:19:35.478Z,99564.50
2018-07-17T12:22:06.465Z,99559.87
2018-07-17T12:24:38.786Z,99558.39
2018-07-17T12:27:08.778Z,99562.61
2018-07-17T12:29:39.426Z,99566.04
2018-07-17T12:32:11.377Z,99562.31
2018-07-17T12:34:41.478Z,99555.89
2018-07-17T12:37:12.463Z,99557.47
2018-07-17T12:39:43.849Z,99551.34
2018-07-17T12:42:14.510Z,99557.77
2018-07-17T12:44:45.534Z,99562.09
2018-07-17T12:47:16.451Z,99549.16
2018-07-17T12:49:47.335Z,99540.29
2018-07-17T12:52:18.667Z,99548.27
2018-07-17T12:54:49.447Z,99549.04
2018-07-17T12:57:20.416Z,99545.72
2018-07-17T12:59:51.359Z,99542.89
2018-07-17T13:02:22.765Z,99531.92
2018-07-17T13:04:54.252Z,99523.50
2018-07-17T13:07:24.854Z,99524.98
2018-07-17T13:09:56.047Z,99523.78
2018-07-17T13:12:26.785Z,99523.38
2018-07-17T13:14:57.534Z,99517.54
2018-07-17T13:17:28.543Z,99521.68
2018-07-17T13:19:59.486Z,99512.86
2018-07-17T13:22:30.299Z,99515.09
2018-07-17T13:25:01.773Z,99518.43
2018-07-17T13:27:32.424Z,99516.88
2018-07-17T13:30:04.091Z,99517.47
2018-07-17T13:32:34.812Z,99526.94
2018-07-17T13:35:05.588Z,99525.99
2018-07-17T13:37:36.469Z,99518.00
2018-07-17T13:40:07.367Z,99520.00
2018-07-17T13:42:38.437Z,99517.60
2018-07-17T13:45:09.471Z,99515.05
2018-07-17T13:47:40.372Z,99524.02
2018-07-17T13:50:11.679Z,99521.28
2018-07-17T13:52:42.458Z,99525.78
2018-07-17T13:55:14.544Z,99511.73
2018-07-17T13:57:45.166Z,99520.43
2018-07-17T14:00:15.822Z,99506.73
2018-07-17T14:02:46.452Z,99514.72
2018-07-17T14:05:18.057Z,99504.63
2018-07-17T14:07:48.691Z,99504.63
2018-07-17T14:10:19.433Z,99511.44
2018-07-17T14:12:50.445Z,99506.95
2018-07-17T14:15:21.302Z,99503.07
2018-07-17T14:17:55.639Z,99508.83
2018-07-17T14:20:29.100Z,99503.53
2018-07-17T14:22:59.070Z,99495.46
2018-07-17T14:25:30.918Z,99498.16
2018-07-17T14:28:01.518Z,99492.52
2018-07-17T14:30:31.457Z,99508.67
2018-07-17T14:33:01.290Z,99498.79
2018-07-17T14:35:31.117Z,99509.50
2018-07-17T14:38:01.988Z,99496.67
2018-07-17T14:40:31.869Z,99500.01
2018-07-17T14:43:02.538Z,99503.07
2018-07-17T14:45:33.559Z,99490.50
2018-07-17T14:48:05.253Z,99483.78
2018-07-17T14:50:36.121Z,99481.89
2018-07-17T14:53:06.861Z,99483.61
2018-07-17T14:55:37.480Z,99473.27
2018-07-17T14:58:08.440Z,99469.81
2018-07-17T15:00:39.355Z,99471.38
2018-07-17T15:03:10.729Z,99474.14
2018-07-17T15:05:41.451Z,99480.28
2018-07-17T15:08:12.422Z,99477.64
2018-07-17T15:10:43.897Z,99476.46
2018-07-17T15:13:14.555Z,99474.66
2018-07-17T15:15:45.396Z,99476.92
2018-07-17T15:18:16.414Z,99485.63
2018-07-17T15:20:47.374Z,99485.05
2018-07-17T15:23:18.904Z,99482.64
2018-07-17T15:25:48.719Z,99485.75
2018-07-17T15:28:19.844Z,99483.56
2018-07-17T15:30:50.505Z,99483.95
2018-07-17T15:33:21.468Z,99479.37
2018-07-17T15:35:52.297Z,99479.61
2018-07-17T15:38:23.426Z,99487.09
2018-07-17T15:40:54.349Z,99488.44
2018-07-17T15:43:25.838Z,99488.60
2018-07-17T15:45:56.493Z,99484.56
2018-07-17T15:48:27.511Z,99485.45
2018-07-17T15:50:58.368Z,99497.27
2018-07-17T15:53:29.529Z,99480.23
2018-07-17T15:56:00.482Z,99494.12
2018-07-17T15:58:31.529Z,99486.72
2018-07-17T16:01:02.594Z,99479.23
2018-07-17T16:03:33.427Z,99482.68
2018-07-17T16:06:04.509Z,99477.84
2018-07-17T16:08:35.687Z,99472.76
2018-07-17T16:11:06.378Z,99470.88
2018-07-17T16:13:37.571Z,99477.98
2018-07-17T16:16:08.315Z,99482.52
2018-07-17T16:18:40.857Z,99479.48
2018-07-17T16:21:10.967Z,99480.13
2018-07-17T16:23:41.902Z,99482.81
2018-07-17T16:26:12.557Z,99488.73
2018-07-17T16:28:43.469Z,99492.02
2018-07-17T16:31:14.120Z,99483.11
2018-07-17T16:33:44.714Z,99486.27
2018-07-17T16:36:15.384Z,99484.63
2018-07-17T16:38:46.341Z,99489.95
2018-07-17T16:41:17.663Z,99485.32
2018-07-17T16:43:48.375Z,99488.31
2018-07-17T16:46:19.472Z,99492.80
2018-07-17T16:48:50.458Z,99493.90
2018-07-17T16:51:21.364Z,99492.34
2018-07-17T16:53:52.757Z,99487.12
2018-07-17T16:56:25.689Z,99482.95
2018-07-17T16:58:56.232Z,99479.22
2018-07-17T17:01:26.122Z,99484.59
2018-07-17T17:03:56.941Z,99483.17
2018-07-17T17:06:27.593Z,99484.14
2018-07-17T17:08:58.513Z,99481.71
2018-07-17T17:11:29.408Z,99481.13
2018-07-17T17:14:00.446Z,99479.53
2018-07-17T17:16:31.448Z,99472.16
2018-07-17T17:19:03.465Z,99477.80
2018-07-17T17:21:33.322Z,99485.62
2018-07-17T17:24:04.766Z,99480.83
2018-07-17T17:26:35.484Z,99490.54
2018-07-17T17:29:06.976Z,99487.17
2018-07-17T17:31:37.669Z,99492.94
2018-07-17T17:34:08.508Z,99499.36
2018-07-17T17:36:39.365Z,99502.70
2018-07-17T17:39:12.009Z,99493.98
2018-07-17T17:41:41.949Z,99497.10
2018-07-17T17:44:12.573Z,99489.66
2018-07-17T17:46:43.397Z,99497.27
2018-07-17T17:49:14.645Z,99494.36
2018-07-17T17:51:45.797Z,99498.80
2018-07-17T17:54:16.659Z,99493.73
2018-07-17T17:56:47.293Z,99493.14
2018-07-17T17:59:18.397Z,99498.28
2018-07-17T18:01:49.333Z,99491.52
2018-07-17T18:04:20.741Z,99495.16
2018-07-17T18:06:51.414Z,99496.75
2018-07-17T18:09:23.285Z,99493.92
2018-07-17T18:11:53.718Z,99490.19
2018-07-17T18:14:24.527Z,99493.47
2018-07-17T18:16:55.437Z,99496.36
2018-07-17T18:19:26.378Z,99498.76
2018-07-17T18:21:57.416Z,99498.25
2018-07-17T18:24:28.824Z,99496.91
2018-07-17T18:26:59.540Z,99497.11
2018-07-17T18:29:30.482Z,99495.47
2018-07-17T18:32:02.023Z,99491.14
2018-07-17T18:34:32.755Z,99490.60
2018-07-17T18:37:03.562Z,99494.27
2018-07-17T18:39:34.455Z,99498.37
2018-07-17T18:42:06.784Z,99490.09
2018-07-17T18:44:38.777Z,99485.98
2018-07-17T18:47:09.220Z,99491.14
2018-07-17T18:49:39.135Z,99489.12
2018-07-17T18:52:10.007Z,99489.87
2018-07-17T18:54:40.645Z,99486.74
2018-07-17T18:57:11.469Z,99483.45
2018-07-17T18:59:42.382Z,99490.77
2018-07-17T19:02:14.298Z,99495.11
2018-07-17T19:04:44.315Z,99493.25
2018-07-17T19:07:15.800Z,99497.80
2018-07-17T19:09:46.536Z,99498.33
2018-07-17T19:12:17.452Z,99501.83
2018-07-17T19:14:48.428Z,99500.19
2018-07-17T19:17:19.289Z,99501.47
2018-07-17T19:19:50.687Z,99502.81
2018-07-17T19:22:21.381Z,99495.86
2018-07-17T19:24:53.272Z,99509.45
2018-07-17T19:27:23.649Z,99510.49
2018-07-17T19:29:54.414Z,99512.44
2018-07-17T19:32:25.355Z,99503.27
2018-07-17T19:34:56.417Z,99505.86
2018-07-17T19:37:27.612Z,99507.75
2018-07-17T19:39:58.340Z,99508.70
2018-07-17T19:42:29.438Z,99505.66
2018-07-17T19:45:00.545Z,99500.05
2018-07-17T19:47:31.482Z,99501.33
2018-07-17T19:50:01.611Z,99496.91
2018-07-17T19:52:32.482Z,99499.30
2018-07-17T19:55:03.825Z,99498.23
2018-07-17T19:57:34.515Z,99496.29
2018-07-17T20:00:06.070Z,99492.26
2018-07-17T20:02:36.766Z,99494.29
2018-07-17T20:05:07.593Z,99490.56
2018-07-17T20:07:38.533Z,99492.26
2018-07-17T20:10:09.508Z,99496.53
2018-07-17T20:12:40.518Z,99484.73
2018-07-17T20:15:11.415Z,99490.47
2018-07-17T20:17:42.357Z,99487.33
2018-07-17T20:20:13.412Z,99479.52
2018-07-17T20:22:44.386Z,99478.67
2018-07-17T20:25:15.871Z,99481.96
2018-07-17T20:27:46.519Z,99475.84
2018-07-17T20:30:17.460Z,99468.68
2018-07-17T20:32:48.387Z,99467.94
2018-07-17T20:35:19.925Z,99469.28
2018-07-17T20:37:51.315Z,99470.02
2018-07-17T20:40:21.696Z,99469.52
2018-07-17T20:42:52.323Z,99468.32
2018-07-17T20:45:23.727Z,99470.11
2018-07-17T20:47:54.559Z,99465.94
2018-07-17T20:50:25.402Z,99466.89
2018-07-17T20:52:57.169Z,99466.44
2018-07-17T20:55:27.342Z,99466.23
2018-07-17T20:57:58.697Z,99457.19
2018-07-17T21:00:29.348Z,99465.84
2018-07-17T21:03:00.392Z,99467.34
2018-07-17T21:05:31.762Z,99460.56
2018-07-17T21:08:03.559Z,99466.44
2018-07-17T21:10:33.457Z,99461.81
2018-07-17T21:13:04.783Z,99465.99
2018-07-17T21:15:35.816Z,99467.42
2018-07-17T21:18:07.339Z,99451.16
2018-07-17T21:20:37.265Z,99464.35
2018-07-17T21:23:08.701Z,99465.64
2018-07-17T21:25:39.325Z,99467.78
2018-07-17T21:28:10.666Z,99463.70
2018-07-17T21:30:41.371Z,99465.78
2018-07-17T21:33:12.342Z,99467.33
2018-07-17T21:35:43.413Z,99468.08
2018-07-17T21:38:14.374Z,99471.21
2018-07-17T21:40:46.282Z,99468.61
2018-07-17T21:43:16.207Z,99467.03
2018-07-17T21:45:46.715Z,99467.03
2018-07-17T21:48:17.480Z,99472.41
2018-07-17T21:50:49.470Z,99476.28
2018-07-17T21:53:19.490Z,99476.88
2018-07-17T21:55:50.389Z,99479.80
2018-07-17T21:58:21.753Z,99482.94
2018-07-17T22:00:53.263Z,99486.52
2018-07-17T22:03:23.716Z,99485.83
2018-07-17T22:05:55.149Z,99492.33
2018-07-17T22:08:25.698Z,99485.38
2018-07-17T22:11:02.686Z,99484.58
2018-07-17T22:13:33.960Z,99486.06
2018-07-17T22:16:03.992Z,99477.91
2018-07-17T22:18:34.044Z,99468.07
2018-07-17T22:21:04.136Z,99467.92
2018-07-17T22:23:34.495Z,99465.03
2018-07-17T22:26:04.489Z,99461.89
2018-07-17T22:28:34.338Z,99459.72
2018-07-17T22:31:04.468Z,99457.03
2018-07-17T22:33:35.375Z,99457.17
2018-07-17T22:36:06.507Z,99453.15
2018-07-17T22:38:37.325Z,99456.13
2018-07-17T22:41:08.727Z,99458.38
2018-07-17T22:43:39.341Z,99457.68
2018-07-17T22:46:10.735Z,99462.34
2018-07-17T22:48:41.890Z,99457.68
2018-07-17T22:51:12.581Z,99435.98
2018-07-17T22:53:43.452Z,99457.02
2018-07-17T22:56:14.317Z,99462.09
2018-07-17T22:58:47.764Z,99460.81
2018-07-17T23:01:18.257Z,99455.74
2018-07-17T23:03:49.474Z,99457.23
2018-07-17T23:06:20.377Z,99461.50
2018-07-17T23:08:51.164Z,99458.06
2018-07-17T23:11:22.061Z,99452.39
2018-07-17T23:13:51.904Z,99449.41
2018-07-17T23:16:23.886Z,99448.28
2018-07-17T23:18:53.888Z,99452.90
2018-07-17T23:21:24.546Z,99447.17
2018-07-17T23:23:55.305Z,99446.43
2018-07-17T23:26:26.730Z,99445.53
2018-07-17T23:28:57.402Z,99453.14
2018-07-17T23:31:29.021Z,99441.36
2018-07-17T23:33:59.761Z,99438.88
2018-07-17T23:36:30.401Z,99433.75
2018-07-17T23:39:01.696Z,99441.27
2018-07-17T23:41:32.410Z,99443.14
2018-07-17T23:44:03.429Z,99441.20
2018-07-17T23:46:34.770Z,99440.00
2018-07-17T23:49:05.424Z,99436.42
2018-07-17T23:51:36.755Z,99442.89
2018-07-17T23:54:07.430Z,99442.09
2018-07-17T23:56:38.390Z,99440.95
2018-07-17T23:59:09.361Z,99446.63
